Time;durP1;ratioP1;P1;durP2;ratioP2;P2;SDS_P1;SDS_P2;PMS_P1;PMS_P2;Temp;Humidity;BMP_temperature;BMP_pressure;BME280_temperature;BME280_humidity;BME280_pressure;Samples;Min_cycle;Max_cycle;Signal;HPM_P1;HPM_P2
2021/06/12 00:02:04;;;;;;;10.50;7.33;;;;;;;12.33;69.87;99427.92;1788809;79;21005;-63
2021/06/12 00:04:33;;;;;;;7.62;6.70;;;;;;;12.36;69.96;99429.05;1781156;79;21016;-62
2021/06/12 00:06:59;;;;;;;12.47;6.67;;;;;;;12.36;70.02;99430.35;1777608;78;20997;-63
2021/06/12 00:09:27;;;;;;;9.65;7.05;;;;;;;12.35;70.16;99433.88;1802907;79;20914;-63
2021/06/12 00:11:54;;;;;;;10.20;7.00;;;;;;;12.31;70.22;99420.97;1788727;78;21430;-63
2021/06/12 00:14:21;;;;;;;;;;;;;;;12.31;70.37;99424.91;1800500;79;21100;-63
2021/06/12 00:16:48;;;;;;;8.48;6.60;;;;;;;12.34;70.72;99422.57;1790695;79;20086;-63
2021/06/12 00:19:14;;;;;;;9.48;7.12;;;;;;;12.36;70.62;99418.56;1790338;79;20959;-62
2021/06/12 00:21:41;;;;;;;8.15;6.08;;;;;;;12.37;70.68;99417.62;1788165;78;21044;-63
2021/06/12 00:24:09;;;;;;;7.30;6.37;;;;;;;12.38;70.78;99417.98;1809509;78;21942;-63
2021/06/12 00:26:38;;;;;;;7.58;6.67;;;;;;;12.29;70.83;99394.06;1801687;78;21949;-63
2021/06/12 00:29:05;;;;;;;10.03;6.50;;;;;;;12.38;70.89;99402.28;1807836;78;21095;-63
2021/06/12 00:31:32;;;;;;;8.73;6.87;;;;;;;12.40;70.95;99410.89;1805726;78;20977;-63
2021/06/12 00:34:00;;;;;;;8.85;7.50;;;;;;;12.44;71.02;99408.48;1802882;78;21528;-63
2021/06/12 00:36:26;;;;;;;7.62;6.50;;;;;;;12.46;71.02;99406.15;1809770;78;21906;-63
2021/06/12 00:38:53;;;;;;;9.20;6.95;;;;;;;12.48;71.11;99399.49;1805797;78;21509;-63
2021/06/12 00:41:21;;;;;;;9.25;7.20;;;;;;;12.49;71.22;99398.55;1803653;78;20899;-63
2021/06/12 00:43:48;;;;;;;7.78;6.62;;;;;;;12.51;71.21;99398.00;1798042;78;21572;-63
2021/06/12 00:46:15;;;;;;;8.98;7.72;;;;;;;12.51;71.32;99395.38;1808876;78;21488;-63
2021/06/12 00:48:43;;;;;;;9.58;7.45;;;;;;;12.48;71.25;99396.88;1802276;78;21259;-62
2021/06/12 00:51:10;;;;;;;;;;;;;;;12.44;71.32;99404.08;1808395;77;21032;-63
2021/06/12 00:53:39;;;;;;;10.95;6.65;;;;;;;12.42;71.58;99393.33;1805731;78;20109;-63
2021/06/12 00:56:09;;;;;;;7.12;6.42;;;;;;;12.41;71.50;99392.95;1798217;78;20942;-63
2021/06/12 00:58:41;;;;;;;11.55;6.87;;;;;;;12.38;71.50;99383.95;1806325;78;20927;-63
2021/06/12 01:01:06;;;;;;;10.23;7.47;;;;;;;12.34;71.55;99385.09;1798603;78;22163;-63
2021/06/12 01:03:33;;;;;;;9.65;7.03;;;;;;;12.32;71.62;99382.55;1806106;78;21492;-63
2021/06/12 01:06:00;;;;;;;8.58;6.75;;;;;;;12.28;71.69;99381.89;1806868;78;21550;-63
2021/06/12 01:08:27;;;;;;;9.93;6.65;;;;;;;12.26;71.78;99378.52;1800536;78;21041;-63
2021/06/12 01:10:53;;;;;;;9.23;7.35;;;;;;;12.24;71.84;99376.48;1809192;78;21552;-63
2021/06/12 01:14:04;;;;;;;10.85;7.22;;;;;;;12.22;71.92;99382.27;1810732;78;21099;-63
2021/06/12 01:16:55;;;;;;;8.90;7.60;;;;;;;12.20;71.95;99376.27;1794895;78;21037;-63
2021/06/12 01:19:54;;;;;;;8.53;7.10;;;;;;;12.21;72.06;99381.03;1801598;78;20975;-63
2021/06/12 01:22:41;;;;;;;9.60;7.37;;;;;;;12.21;72.13;99374.05;1800483;78;20949;-64
2021/06/12 01:25:39;;;;;;;8.03;7.23;;;;;;;12.19;72.12;99371.98;1798941;78;21053;-63
2021/06/12 01:28:31;;;;;;;11.48;7.28;;;;;;;12.20;72.19;99381.50;1802139;78;21486;-63
2021/06/12 01:30:59;;;;;;;7.65;6.85;;;;;;;12.15;72.27;99379.62;1804173;78;21365;-63
2021/06/12 01:33:26;;;;;;;8.28;7.08;;;;;;;12.16;72.37;99380.48;1797085;78;20895;-63
2021/06/12 01:35:59;;;;;;;8.40;7.33;;;;;;;12.19;72.44;99373.77;1791653;78;21540;-63
2021/06/12 01:38:30;;;;;;;7.35;6.40;;;;;;;12.20;72.48;99369.73;1810727;78;21006;-63
2021/06/12 01:41:00;;;;;;;12.70;8.03;;;;;;;12.24;72.49;99374.34;1806003;78;22351;-62
2021/06/12 01:43:30;;;;;;;7.45;6.00;;;;;;;12.26;72.58;99367.21;1808918;78;21069;-63
2021/06/12 01:45:58;;;;;;;8.65;6.37;;;;;;;12.30;72.64;99361.71;1814178;78;21024;-63
2021/06/12 01:48:26;;;;;;;7.30;6.53;;;;;;;12.36;72.67;99354.42;1771418;79;21475;-63
2021/06/12 01:50:55;;;;;;;8.13;6.15;;;;;;;12.39;72.68;99351.62;1781769;78;21082;-63
2021/06/12 01:53:30;;;;;;;6.60;5.90;;;;;;;12.42;72.65;99350.95;1775811;78;20981;-62
2021/06/12 01:55:52;;;;;;;8.08;6.53;;;;;;;12.44;72.72;99346.95;1803357;78;21079;-63
2021/06/12 01:58:23;;;;;;;6.97;5.90;;;;;;;12.47;72.71;99355.45;1792552;78;21075;-63
2021/06/12 02:00:52;;;;;;;6.70;5.90;;;;;;;12.50;72.71;99347.88;1814205;78;20938;-63
2021/06/12 02:03:20;;;;;;;9.65;6.25;;;;;;;12.53;72.77;99356.86;1791087;78;21526;-64
2021/06/12 02:05:50;;;;;;;7.22;6.05;;;;;;;12.58;72.77;99344.33;1797043;78;21835;-63
2021/06/12 02:08:17;;;;;;;7.03;6.30;;;;;;;12.59;72.79;99334.21;1776054;79;21041;-63
2021/06/12 02:10:46;;;;;;;;;;;;;;;12.60;72.74;99342.43;1805849;78;20898;-63
2021/06/12 02:13:17;;;;;;;7.12;5.92;;;;;;;12.59;72.87;99337.30;1798661;78;20468;-63
2021/06/12 02:15:46;;;;;;;8.25;5.60;;;;;;;12.57;72.81;99333.45;1804747;78;21116;-63
2021/06/12 02:18:15;;;;;;;6.87;6.28;;;;;;;12.59;72.85;99330.28;1813642;78;21911;-63
2021/06/12 02:20:43;;;;;;;6.47;5.72;;;;;;;12.61;72.89;99331.04;1801159;78;21055;-63
2021/06/12 02:23:10;;;;;;;7.72;6.20;;;;;;;12.63;72.83;99318.70;1799217;78;20970;-63
2021/06/12 02:25:37;;;;;;;7.58;5.85;;;;;;;12.66;72.92;99317.64;1795267;78;21539;-63
2021/06/12 02:28:08;;;;;;;10.35;5.60;;;;;;;12.68;72.92;99308.75;1798462;78;21789;-64
2021/06/12 02:30:42;;;;;;;6.55;5.90;;;;;;;12.75;73.06;99311.38;1801744;78;21040;-62
2021/06/12 02:33:15;;;;;;;6.67;5.55;;;;;;;12.88;73.12;99306.66;1779130;78;21001;-63
2021/06/12 02:35:42;;;;;;;6.90;5.17;;;;;;;12.99;73.12;99305.06;1802358;78;21052;-63
2021/06/12 02:38:09;;;;;;;8.08;6.00;;;;;;;13.09;73.08;99302.68;1806623;78;20993;-64
2021/06/12 02:40:37;;;;;;;7.12;5.50;;;;;;;13.23;73.11;99308.82;1799316;78;22298;-63
2021/06/12 02:43:04;;;;;;;5.35;4.85;;;;;;;13.38;73.01;99290.80;1814414;78;21101;-63
2021/06/12 02:45:31;;;;;;;5.47;4.97;;;;;;;13.38;73.01;99290.80;1803637;78;21057;-63
2021/06/12 02:48:06;;;;;;;5.80;5.12;;;;;;;13.61;73.02;99304.56;1809776;78;21583;-63
2021/06/12 02:50:36;;;;;;;6.00;4.53;;;;;;;13.72;72.96;99301.67;1758780;80;21011;-63
2021/06/12 02:53:06;;;;;;;5.03;4.53;;;;;;;13.84;72.98;99299.56;1770742;79;21017;-63
2021/06/12 02:55:38;;;;;;;5.95;5.15;;;;;;;14.03;73.09;99297.37;1793115;78;21158;-63
2021/06/12 02:58:08;;;;;;;8.10;4.50;;;;;;;14.44;73.27;99304.16;1769059;79;21057;-64
2021/06/12 03:00:37;;;;;;;16.67;5.00;;;;;;;14.87;73.01;99295.91;1763005;79;21030;-64
2021/06/12 03:03:05;;;;;;;20.25;5.30;;;;;;;15.23;72.61;99302.06;1796120;78;21672;-63
2021/06/12 03:05:38;;;;;;;11.10;4.35;;;;;;;15.41;72.45;99299.89;1771704;79;21523;-63
2021/06/12 03:08:07;;;;;;;8.58;4.72;;;;;;;15.58;72.37;99298.63;1770110;79;21143;-63
2021/06/12 03:10:36;;;;;;;5.03;4.50;;;;;;;15.76;72.34;99289.37;1768775;79;21145;-63
2021/06/12 03:13:06;;;;;;;11.35;4.85;;;;;;;15.95;72.17;99287.50;1760647;79;21098;-63
2021/06/12 03:15:34;;;;;;;45.63;6.55;;;;;;;16.04;72.03;99293.38;1743574;79;20965;-63
2021/06/12 03:18:03;;;;;;;30.45;6.03;;;;;;;16.13;71.89;99282.60;1772204;79;21025;-63
2021/06/12 03:20:31;;;;;;;13.50;4.95;;;;;;;16.25;72.07;99277.72;1773812;79;21924;-63
2021/06/12 03:23:01;;;;;;;21.45;5.03;;;;;;;16.68;72.33;99274.33;1774400;79;21554;-63
2021/06/12 03:25:30;;;;;;;16.00;5.08;;;;;;;17.23;71.81;99285.73;1773990;79;20957;-63
2021/06/12 03:27:58;;;;;;;15.78;5.42;;;;;;;17.58;71.24;99284.62;1767393;79;21089;-64
2021/06/12 03:30:25;;;;;;;15.05;4.60;;;;;;;17.75;71.19;99279.73;1772305;79;21496;-63
2021/06/12 03:32:52;;;;;;;;;;;;;;;18.02;70.93;99281.40;1770127;79;21967;-64
2021/06/12 03:35:20;;;;;;;26.57;5.92;;;;;;;18.49;70.66;99283.08;1775040;79;20131;-64
2021/06/12 03:37:48;;;;;;;8.10;4.05;;;;;;;18.98;70.63;99286.70;1766652;79;20953;-64
2021/06/12 03:40:16;;;;;;;19.45;4.87;;;;;;;19.44;70.31;99279.93;1777868;79;20938;-64
2021/06/12 03:42:45;;;;;;;16.80;5.03;;;;;;;20.27;70.25;99280.20;1770627;79;21523;-64
2021/06/12 03:45:14;;;;;;;23.52;5.67;;;;;;;21.07;69.46;99283.67;1764460;79;21941;-64
2021/06/12 03:47:42;;;;;;;26.20;4.22;;;;;;;21.15;68.65;99275.30;1771398;79;20934;-64
2021/06/12 03:50:12;;;;;;;13.13;4.60;;;;;;;20.96;68.50;99280.73;1769522;79;20987;-64
2021/06/12 03:52:41;;;;;;;21.62;4.30;;;;;;;20.73;68.08;99278.50;1766630;79;20934;-64
2021/06/12 03:55:09;;;;;;;6.50;3.98;;;;;;;20.37;67.87;99272.23;1770251;79;21579;-64
2021/06/12 03:57:37;;;;;;;25.77;4.67;;;;;;;20.22;68.28;99271.02;1761690;79;21110;-64
2021/06/12 04:00:08;;;;;;;28.38;5.42;;;;;;;20.62;68.29;99260.13;1748359;79;21106;-65
2021/06/12 04:02:35;;;;;;;47.40;5.85;;;;;;;21.58;68.54;99255.11;1768027;79;21060;-64
2021/06/12 04:05:02;;;;;;;11.60;3.65;;;;;;;22.77;67.89;99251.80;1771930;79;21036;-64
2021/06/12 04:07:30;;;;;;;16.93;3.45;;;;;;;23.61;66.53;99249.89;1772640;79;21147;-64
2021/06/12 04:09:57;;;;;;;37.88;4.67;;;;;;;23.49;65.33;99245.91;1765102;79;21507;-64
2021/06/12 04:12:24;;;;;;;8.25;3.52;;;;;;;23.09;65.14;99243.56;1760578;79;20973;-64
2021/06/12 04:14:50;;;;;;;9.60;2.90;;;;;;;22.77;65.22;99238.48;1767860;79;20966;-64
2021/06/12 04:17:17;;;;;;;4.05;2.80;;;;;;;22.56;65.11;99239.73;1771934;79;21001;-64
2021/06/12 04:19:44;;;;;;;4.87;3.00;;;;;;;22.43;64.83;99229.20;1765010;79;21081;-64
2021/06/12 04:22:11;;;;;;;7.80;2.80;;;;;;;22.30;64.31;99233.66;1769296;79;21159;-64
2021/06/12 04:24:37;;;;;;;7.45;2.60;;;;;;;22.49;64.69;99225.42;1755317;79;21496;-64
2021/06/12 04:27:05;;;;;;;5.35;2.72;;;;;;;22.87;64.07;99228.52;1744621;81;20969;-64
2021/06/12 04:29:32;;;;;;;3.12;2.50;;;;;;;22.94;63.58;99212.23;1746623;81;20989;-64
2021/06/12 04:31:59;;;;;;;5.83;2.70;;;;;;;22.76;63.23;99212.84;1757648;80;20986;-64
2021/06/12 04:34:25;;;;;;;3.90;2.58;;;;;;;22.39;62.92;99211.42;1729049;82;22295;-64
2021/06/12 04:36:52;;;;;;;4.80;2.50;;;;;;;22.24;63.12;99210.38;1725667;81;21570;-64
2021/06/12 04:39:19;;;;;;;4.87;2.98;;;;;;;22.13;62.76;99206.96;1722928;81;21071;-64
2021/06/12 04:41:45;;;;;;;;;;;;;;;21.82;62.61;99195.17;1728255;83;21024;-64
2021/06/12 04:44:12;;;;;;;5.10;2.55;;;;;;;21.54;62.42;99197.98;1742284;81;20126;-63
2021/06/12 04:46:40;;;;;;;7.10;3.17;;;;;;;21.31;62.51;99200.75;1765047;79;21415;-64
2021/06/12 04:49:07;;;;;;;5.42;2.50;;;;;;;21.08;62.35;99207.86;1745396;81;21048;-63
2021/06/12 04:51:33;;;;;;;6.55;2.80;;;;;;;20.84;62.32;99197.00;1745864;81;21080;-64
2021/06/12 04:54:00;;;;;;;13.53;3.25;;;;;;;20.60;62.24;99196.28;1749451;80;20930;-64
2021/06/12 04:56:27;;;;;;;85.53;10.80;;;;;;;20.41;62.30;99183.94;1751815;81;21032;-64
2021/06/12 04:58:54;;;;;;;11.00;2.95;;;;;;;20.29;62.30;99182.81;1747059;81;24927;-63
2021/06/12 05:01:20;;;;;;;248.62;23.22;;;;;;;20.16;62.22;99180.98;1743010;81;20954;-64
2021/06/12 05:03:47;;;;;;;72.55;8.93;;;;;;;20.20;62.43;99181.05;1745959;81;21050;-64
2021/06/12 05:06:14;;;;;;;26.55;4.45;;;;;;;20.59;62.54;99178.21;1740976;81;20977;-64
2021/06/12 05:08:41;;;;;;;59.58;6.17;;;;;;;20.85;62.02;99180.13;1741626;81;21028;-64
2021/06/12 05:11:07;;;;;;;;;;;;;;;20.87;61.82;99176.34;1748290;81;23232;-64
2021/06/12 05:13:35;;;;;;;47.67;6.58;;;;;;;20.79;61.55;99174.42;1759124;80;20082;-64
2021/06/12 05:16:03;;;;;;;101.15;13.43;;;;;;;20.79;61.83;99171.77;1719817;81;21029;-63
2021/06/12 05:18:40;;;;;;;27.27;8.25;;;;;;;20.99;61.92;99174.28;1764585;79;20951;-64
2021/06/12 05:21:01;;;;;;;200.28;24.00;;;;;;;21.14;61.71;99172.73;1740487;81;21001;-64
2021/06/12 05:23:29;;;;;;;45.63;6.47;;;;;;;21.43;61.83;99178.31;1743669;80;21194;-65
2021/06/12 05:25:56;;;;;;;136.52;21.05;;;;;;;21.63;61.44;99162.50;1772236;80;20983;-64
2021/06/12 05:28:23;;;;;;;76.65;15.80;;;;;;;21.83;61.39;99167.59;1770781;80;21572;-64
2021/06/12 05:30:49;;;;;;;90.17;12.20;;;;;;;22.09;61.41;99163.06;1775642;80;21070;-64
2021/06/12 05:33:16;;;;;;;225.62;32.95;;;;;;;22.55;61.31;99163.59;1775180;79;20924;-64
2021/06/12 05:35:42;;;;;;;138.45;20.17;;;;;;;22.91;61.07;99160.66;1773017;79;21060;-64
2021/06/12 05:38:09;;;;;;;130.75;16.85;;;;;;;23.49;61.27;99156.14;1743411;81;21064;-64
2021/06/12 05:40:36;;;;;;;136.40;26.68;;;;;;;24.20;60.81;99154.47;1767129;80;20985;-64
2021/06/12 05:43:03;;;;;;;106.78;27.02;;;;;;;24.27;60.03;99147.42;1767578;80;21002;-63
2021/06/12 05:45:29;;;;;;;52.90;14.83;;;;;;;24.21;59.82;99146.78;1763501;80;21040;-63
2021/06/12 05:47:58;;;;;;;209.87;26.75;;;;;;;24.02;59.64;99148.53;1739933;80;21085;-64
2021/06/12 05:50:26;;;;;;;91.82;14.10;;;;;;;23.76;59.36;99141.63;1772889;80;21106;-63
2021/06/12 05:52:53;;;;;;;43.20;9.80;;;;;;;23.32;59.23;99143.34;1769904;80;20981;-63
2021/06/12 05:55:19;;;;;;;17.35;4.37;;;;;;;22.90;59.27;99129.69;1776178;79;20982;-64
2021/06/12 05:57:46;;;;;;;58.20;6.90;;;;;;;22.44;59.19;99133.30;1770863;80;21036;-64
2021/06/12 06:00:14;;;;;;;7.50;3.20;;;;;;;22.18;59.51;99129.42;1759049;79;21587;-64
2021/06/12 06:02:41;;;;;;;13.40;3.35;;;;;;;22.05;59.59;99129.83;1762014;80;20973;-64
2021/06/12 06:05:09;;;;;;;7.83;3.05;;;;;;;21.95;59.61;99122.47;1725856;81;21035;-63
2021/06/12 06:07:35;;;;;;;6.08;2.85;;;;;;;21.90;59.63;99126.09;1736054;81;20934;-64
2021/06/12 06:10:03;;;;;;;13.18;4.00;;;;;;;21.93;59.56;99123.14;1747019;80;20953;-63
2021/06/12 06:12:30;;;;;;;9.18;3.45;;;;;;;21.90;59.55;99126.09;1764540;80;21064;-64
2021/06/12 06:14:58;;;;;;;85.72;5.83;;;;;;;21.87;59.64;99126.41;1778766;80;20953;-65
2021/06/12 06:17:24;;;;;;;26.87;5.62;;;;;;;21.82;59.51;99123.42;1727719;81;21081;-63
2021/06/12 06:19:51;;;;;;;35.63;5.53;;;;;;;21.75;59.65;99120.55;1746832;80;21085;-64
2021/06/12 06:22:18;;;;;;;17.45;4.37;;;;;;;21.66;59.62;99125.00;1748457;80;21002;-63
2021/06/12 06:24:44;;;;;;;32.10;5.10;;;;;;;21.48;59.55;99121.56;1761672;79;21467;-63
2021/06/12 06:27:12;;;;;;;13.00;3.52;;;;;;;21.29;59.67;99127.07;1763747;79;22044;-64
2021/06/12 06:29:41;;;;;;;4.67;2.70;;;;;;;21.13;59.79;99121.97;1771999;79;21580;-63
2021/06/12 06:32:07;;;;;;;11.90;2.70;;;;;;;20.99;59.75;99118.55;1765549;79;21127;-64
2021/06/12 06:34:34;;;;;;;18.48;4.30;;;;;;;20.83;59.89;99115.75;1772148;79;21004;-64
2021/06/12 06:37:01;;;;;;;14.65;3.65;;;;;;;20.71;60.02;99113.33;1772471;79;21509;-64
2021/06/12 06:39:27;;;;;;;16.35;3.52;;;;;;;20.64;60.15;99110.97;1763828;79;20997;-64
2021/06/12 06:41:54;;;;;;;22.22;3.98;;;;;;;20.57;60.14;99113.87;1767448;79;21020;-63
2021/06/12 06:44:21;;;;;;;15.98;3.35;;;;;;;20.48;60.33;99120.05;1776708;79;21726;-63
2021/06/12 06:46:47;;;;;;;5.08;2.95;;;;;;;20.37;60.30;99117.62;1770370;79;20934;-63
2021/06/12 06:49:14;;;;;;;5.35;2.50;;;;;;;20.25;60.33;99112.53;1765021;79;21474;-63
2021/06/12 06:51:40;;;;;;;3.77;2.50;;;;;;;20.15;60.43;99110.42;1764268;79;20969;-63
2021/06/12 06:54:07;;;;;;;21.48;3.72;;;;;;;20.09;60.59;99101.73;1765255;79;20960;-64
2021/06/12 06:56:34;;;;;;;11.05;2.80;;;;;;;20.03;60.59;99101.02;1762980;79;20974;-64
2021/06/12 06:59:00;;;;;;;6.30;3.65;;;;;;;20.00;60.65;99096.84;1767713;79;20968;-64
2021/06/12 07:01:27;;;;;;;8.08;3.55;;;;;;;19.97;60.72;99097.61;1732865;79;23662;-64
2021/06/12 07:03:54;;;;;;;25.95;4.20;;;;;;;19.94;60.81;99092.60;1776295;79;28317;-64
2021/06/12 07:06:21;;;;;;;9.13;3.45;;;;;;;19.88;60.92;99097.53;1766101;79;20969;-63
2021/06/12 07:08:47;;;;;;;11.30;4.45;;;;;;;19.89;60.99;99099.19;1770461;79;21646;-63
2021/06/12 07:11:14;;;;;;;8.00;5.03;;;;;;;19.95;60.97;99086.34;1767835;79;21144;-63
2021/06/12 07:13:41;;;;;;;19.90;5.90;;;;;;;20.02;61.10;99079.45;1766835;79;21080;-63
2021/06/12 07:16:08;;;;;;;20.30;6.22;;;;;;;20.19;61.13;99077.81;1769372;79;20952;-63
2021/06/12 07:18:35;;;;;;;17.90;5.15;;;;;;;20.34;61.07;99077.16;1775753;79;20953;-62
2021/06/12 07:21:02;;;;;;;31.52;5.92;;;;;;;20.55;61.17;99070.74;1774550;79;21107;-63
2021/06/12 07:23:29;;;;;;;10.85;4.28;;;;;;;20.87;61.27;99069.38;1763780;79;20990;-65
2021/06/12 07:25:57;;;;;;;10.38;5.00;;;;;;;21.17;61.00;99066.27;1749947;80;21528;-64
2021/06/12 07:28:24;;;;;;;44.55;7.12;;;;;;;21.19;60.85;99056.80;1754898;80;21132;-64
2021/06/12 07:30:51;;;;;;;97.90;10.95;;;;;;;21.16;60.55;99063.76;1749033;80;20986;-65
2021/06/12 07:33:19;;;;;;;20.23;6.85;;;;;;;20.90;60.54;99065.91;1748998;80;21037;-64
2021/06/12 07:35:46;;;;;;;21.35;6.67;;;;;;;20.44;60.73;99065.64;1746973;80;21005;-64
2021/06/12 07:38:13;;;;;;;23.35;6.80;;;;;;;20.02;60.95;99071.50;1750494;80;22029;-64
2021/06/12 07:40:40;;;;;;;21.02;7.22;;;;;;;19.67;61.29;99075.73;1752691;80;26669;-64
2021/06/12 07:43:07;;;;;;;51.23;12.23;;;;;;;19.32;61.66;99090.45;1752662;80;21379;-64
2021/06/12 07:45:34;;;;;;;19.73;8.70;;;;;;;18.85;61.83;99091.73;1744748;80;21031;-63
2021/06/12 07:48:00;;;;;;;;;;;;;;;18.46;62.37;99089.06;1749527;80;20902;-64
2021/06/12 07:50:28;;;;;;;67.42;14.73;;;;;;;18.14;63.25;99095.06;1751274;80;22256;-64
2021/06/12 07:52:56;;;;;;;13.62;7.87;;;;;;;17.83;63.37;99103.03;1768969;80;21048;-64
2021/06/12 07:55:23;;;;;;;63.58;14.40;;;;;;;17.45;64.24;99097.92;1728837;81;21061;-64
2021/06/12 07:57:51;;;;;;;73.12;18.95;;;;;;;17.04;64.72;99091.70;1747043;80;20899;-63
2021/06/12 08:00:19;;;;;;;97.67;23.60;;;;;;;17.04;64.72;99091.70;1749088;81;21060;-63
2021/06/12 08:02:52;;;;;;;84.17;22.20;;;;;;;16.98;64.82;99085.64;1747157;81;21159;-64
2021/06/12 08:05:21;;;;;;;78.47;17.92;;;;;;;16.99;64.93;99087.30;1748368;81;21041;-63
2021/06/12 08:07:48;;;;;;;23.87;7.00;;;;;;;16.99;65.22;99083.34;1749104;80;21027;-63
2021/06/12 08:10:15;;;;;;;28.42;14.23;;;;;;;17.06;65.56;99082.36;1739606;82;21681;-62
2021/06/12 08:12:41;;;;;;;;;;;;;;;17.17;65.63;99091.03;1769699;79;20966;-64
2021/06/12 08:15:09;;;;;;;13.35;6.50;;;;;;;17.33;66.13;99087.08;1746291;81;21074;-63
2021/06/12 08:17:36;;;;;;;6.83;4.78;;;;;;;17.51;66.00;99083.37;1748737;81;21054;-64
2021/06/12 08:20:05;;;;;;;10.60;4.55;;;;;;;17.73;66.20;99077.03;1744884;81;21006;-63
2021/06/12 08:22:32;;;;;;;29.35;8.33;;;;;;;17.99;66.18;99074.31;1728258;82;21110;-63
2021/06/12 08:25:41;;;;;;;35.58;8.18;;;;;;;18.45;66.38;99074.16;1839235;76;22091;-63
2021/06/12 08:31:38;;;;;;;38.65;12.37;;;;;;;18.87;66.17;99070.42;1843561;75;30405;-63
2021/06/12 08:34:06;;;;;;;51.85;14.95;;;;;;;18.84;65.83;99078.15;1834928;77;21029;-64
2021/06/12 08:36:39;;;;;;;31.65;9.95;;;;;;;18.62;66.15;99069.16;1846381;75;21723;-64
2021/06/12 08:39:06;;;;;;;59.20;16.87;;;;;;;18.55;66.30;99068.39;1776201;79;20978;-62
2021/06/12 08:41:33;;;;;;;131.63;29.20;;;;;;;18.40;66.35;99060.55;1776086;80;21545;-62
2021/06/12 08:44:01;;;;;;;107.72;22.22;;;;;;;18.20;66.64;99063.63;1777410;79;21592;-63
2021/06/12 08:46:29;;;;;;;17.80;8.85;;;;;;;18.06;66.89;99056.10;1805573;78;21560;-63
2021/06/12 08:48:57;;;;;;;72.47;14.98;;;;;;;18.05;67.17;99059.23;1807117;78;21884;-62
2021/06/12 08:51:24;;;;;;;37.83;9.95;;;;;;;18.13;67.38;99048.48;1764832;78;21005;-62
2021/06/12 08:53:51;;;;;;;21.80;8.28;;;;;;;18.23;67.23;99051.95;1768054;78;20944;-62
2021/06/12 08:56:18;;;;;;;;;;;;;;;18.51;67.49;99059.09;1768025;78;21160;-62
2021/06/12 08:58:44;;;;;;;174.20;28.25;;;;;;;18.70;67.30;99052.11;1786004;79;20166;-63
2021/06/12 09:01:11;;;;;;;42.58;13.93;;;;;;;18.84;67.38;99045.58;1789757;79;21492;-62
2021/06/12 09:03:44;;;;;;;50.25;13.90;;;;;;;18.95;67.37;99043.60;1783288;79;21040;-62
2021/06/12 09:06:12;;;;;;;90.60;18.15;;;;;;;19.17;67.43;99049.55;1789825;79;20993;-62
2021/06/12 09:08:41;;;;;;;20.85;9.68;;;;;;;19.40;67.19;99040.27;1788047;79;21468;-62
2021/06/12 09:11:12;;;;;;;230.47;37.58;;;;;;;19.50;66.99;99042.06;1784667;79;20926;-63
2021/06/12 09:13:57;;;;;;;40.58;8.28;;;;;;;19.45;67.05;99034.05;1793527;79;21028;-63
2021/06/12 09:16:42;;;;;;;39.63;6.62;;;;;;;19.31;66.49;99032.37;1778846;79;21219;-64
2021/06/12 09:19:15;;;;;;;42.65;5.37;;;;;;;18.89;66.72;99033.60;1782964;79;21500;-64
2021/06/12 09:21:46;;;;;;;15.00;2.60;;;;;;;18.63;67.06;99040.44;1788457;78;21593;-64
2021/06/12 09:24:41;;;;;;;17.60;3.05;;;;;;;18.48;67.01;99040.83;1790111;79;20992;-63
2021/06/12 09:27:16;;;;;;;4.00;2.10;;;;;;;18.42;67.14;99051.97;1788966;79;21096;-63
2021/06/12 09:29:47;;;;;;;57.10;7.12;;;;;;;18.29;67.04;99046.97;1785757;79;20993;-63
2021/06/12 09:35:06;;;;;;;21.65;3.67;;;;;;;18.21;67.32;99057.39;1725299;80;26382;-64
2021/06/12 09:37:33;;;;;;;35.13;4.70;;;;;;;18.19;67.15;99054.05;1660738;84;21532;-63
2021/06/12 09:40:14;;;;;;;7.75;2.50;;;;;;;18.02;67.30;99050.27;1658061;84;21496;-63
2021/06/12 09:42:51;;;;;;;5.97;3.87;;;;;;;17.83;67.15;99044.94;1672888;83;21061;-64
2021/06/12 09:45:26;;;;;;;4.72;2.10;;;;;;;17.59;67.55;99047.42;1663422;84;21049;-63
2021/06/12 09:48:08;;;;;;;5.58;2.37;;;;;;;17.40;67.54;99046.02;1671735;83;21097;-64
2021/06/12 09:50:35;;;;;;;5.37;3.52;;;;;;;17.18;67.80;99050.48;1677751;83;21610;-64
2021/06/12 09:53:17;;;;;;;18.70;5.78;;;;;;;16.96;67.88;99040.09;1682369;83;21121;-64
2021/06/12 09:55:45;;;;;;;5.62;2.87;;;;;;;16.82;68.24;99035.98;1671616;84;21152;-64
2021/06/12 09:58:13;;;;;;;14.98;4.22;;;;;;;16.82;68.56;99040.42;1681487;83;21014;-64
2021/06/12 10:00:48;;;;;;;18.00;4.78;;;;;;;16.72;68.53;99046.44;1678779;84;21556;-64
2021/06/12 10:03:32;;;;;;;69.95;12.58;;;;;;;16.69;68.78;99036.16;1687756;82;21186;-63
2021/06/12 10:06:27;;;;;;;4.53;2.33;;;;;;;16.58;68.95;99041.48;1671032;84;21956;-64
2021/06/12 10:08:54;;;;;;;3.08;1.77;;;;;;;16.25;69.20;99058.26;1697446;82;21006;-64
2021/06/12 10:11:27;;;;;;;5.50;2.02;;;;;;;15.65;70.92;99073.52;1676476;83;20945;-64
2021/06/12 10:13:54;;;;;;;4.12;1.90;;;;;;;15.12;70.96;99081.13;1678231;82;21051;-65
2021/06/12 10:16:23;;;;;;;1.67;1.25;;;;;;;14.82;71.27;99069.38;1677389;82;21428;-64
2021/06/12 10:18:53;;;;;;;7.28;1.67;;;;;;;14.64;71.48;99074.67;1688123;83;21444;-64
2021/06/12 10:21:20;;;;;;;7.10;2.12;;;;;;;14.55;71.15;99087.54;1697176;82;21713;-64
2021/06/12 10:23:52;;;;;;;;;;;;;;;14.54;71.40;99081.94;1676267;83;21324;-64
2021/06/12 10:26:24;;;;;;;7.00;2.37;;;;;;;14.52;71.94;99093.50;1646797;84;20172;-64
2021/06/12 10:28:51;;;;;;;13.83;2.58;;;;;;;14.49;71.58;99091.07;1680475;83;20988;-64
2021/06/12 10:31:22;;;;;;;68.35;12.85;;;;;;;14.53;71.76;99087.28;1674976;82;21130;-65
2021/06/12 10:33:52;;;;;;;60.83;12.47;;;;;;;14.59;71.61;99094.73;1676402;83;21223;-65
2021/06/12 10:36:29;;;;;;;116.67;20.50;;;;;;;14.66;71.53;99088.55;1697339;83;21005;-66
2021/06/12 10:38:56;;;;;;;141.10;23.52;;;;;;;14.68;71.44;99088.80;1696148;83;20965;-63
2021/06/12 10:41:28;;;;;;;115.30;21.60;;;;;;;14.69;71.23;99086.52;1697079;83;21025;-63
2021/06/12 10:43:59;;;;;;;42.08;8.00;;;;;;;14.72;71.32;99084.14;1674116;84;21055;-62
2021/06/12 10:46:31;;;;;;;60.05;10.35;;;;;;;14.71;71.13;99082.48;1708227;83;21009;-63
2021/06/12 10:49:03;;;;;;;68.92;11.08;;;;;;;14.75;71.30;99076.03;1675403;84;20994;-64
2021/06/12 10:51:39;;;;;;;47.10;8.70;;;;;;;14.93;71.49;99066.77;1678192;83;21508;-64
2021/06/12 10:54:21;;;;;;;38.60;7.65;;;;;;;15.06;71.30;99056.63;1678424;84;21009;-65
2021/06/12 10:57:17;;;;;;;50.00;9.15;;;;;;;15.26;71.56;99058.55;1703266;83;21180;-65
2021/06/12 10:59:51;;;;;;;162.27;30.15;;;;;;;15.39;71.29;99062.41;1675123;84;21278;-63
2021/06/12 11:02:43;;;;;;;82.65;19.40;;;;;;;15.65;71.70;99053.29;1700237;82;20977;-64
2021/06/12 11:05:04;;;;;;;117.47;27.80;;;;;;;15.95;71.56;99048.39;1696114;82;21012;-62
2021/06/12 11:07:38;;;;;;;57.25;17.02;;;;;;;16.13;71.47;99041.63;1704822;82;22189;-64
2021/06/12 11:10:16;;;;;;;48.08;11.05;;;;;;;16.23;71.35;99037.78;1711817;82;21118;-64
2021/06/12 11:12:57;;;;;;;55.50;13.85;;;;;;;16.31;70.98;99025.66;1703526;83;21074;-66
2021/06/12 11:15:32;;;;;;;86.30;17.90;;;;;;;16.34;71.31;99020.62;1701091;81;21556;-66
2021/06/12 11:18:23;;;;;;;92.22;20.15;;;;;;;16.58;71.41;99025.67;1705393;82;21017;-64
2021/06/12 11:21:06;;;;;;;44.95;8.25;;;;;;;16.71;71.42;99024.98;1703138;83;20965;-64
2021/06/12 11:23:55;;;;;;;127.32;23.20;;;;;;;16.75;70.87;99019.82;1706730;83;21071;-64
2021/06/12 11:26:24;;;;;;;77.10;16.93;;;;;;;16.93;71.55;99012.66;1706080;83;21634;-64
2021/06/12 11:29:11;;;;;;;82.80;16.42;;;;;;;17.24;71.31;98997.69;1710661;83;20958;-64
2021/06/12 11:31:39;;;;;;;150.53;27.87;;;;;;;17.59;71.46;98995.95;1684689;83;21012;-64
2021/06/12 11:34:19;;;;;;;68.78;14.85;;;;;;;17.85;70.81;98993.66;1678915;83;21101;-64
2021/06/12 11:37:11;;;;;;;47.08;10.70;;;;;;;17.89;70.77;98990.25;1669762;84;21114;-64
2021/06/12 11:39:51;;;;;;;103.35;17.98;;;;;;;17.85;70.45;98989.70;1694697;82;21092;-64
2021/06/12 11:42:42;;;;;;;64.60;14.47;;;;;;;17.62;70.47;98990.39;1655939;84;20999;-64
2021/06/12 11:45:31;;;;;;;56.63;13.35;;;;;;;17.56;70.52;99000.17;1584455;89;21219;-65
2021/06/12 11:48:14;;;;;;;170.30;32.10;;;;;;;17.54;70.79;98998.14;1584554;89;21071;-65
2021/06/12 11:50:42;;;;;;;162.92;27.02;;;;;;;17.70;70.96;98996.33;1569132;89;21564;-65